sensor_id;sensor_type;location;lat;lon;timestamp;P1;durP1;ratioP1;P2;durP2;ratioP2
58139;SDS011;53185;47.378;18.922;2023-12-29T00:00:00;80.10;;;33.05;;
58139;SDS011;53185;47.378;18.922;2023-12-29T00:02:32;81.65;;;34.47;;
58139;SDS011;53185;47.378;18.922;2023-12-29T00:04:59;79.10;;;34.25;;
58139;SDS011;53185;47.378;18.922;2023-12-29T00:07:27;65.80;;;31.17;;
58139;SDS011;53185;47.378;18.922;2023-12-29T00:09:55;75.25;;;31.35;;
58139;SDS011;53185;47.378;18.922;2023-12-29T00:12:23;74.85;;;31.42;;
58139;SDS011;53185;47.378;18.922;2023-12-29T00:14:51;68.25;;;28.58;;
58139;SDS011;53185;47.378;18.922;2023-12-29T00:17:20;74.50;;;31.37;;
58139;SDS011;53185;47.378;18.922;2023-12-29T00:19:48;80.53;;;31.77;;
58139;SDS011;53185;47.378;18.922;2023-12-29T00:22:16;83.95;;;32.17;;
58139;SDS011;53185;47.378;18.922;2023-12-29T00:24:44;78.00;;;30.05;;
58139;SDS011;53185;47.378;18.922;2023-12-29T00:27:13;77.55;;;31.75;;
58139;SDS011;53185;47.378;18.922;2023-12-29T00:29:41;76.65;;;32.33;;
58139;SDS011;53185;47.378;18.922;2023-12-29T00:32:08;67.00;;;30.02;;
58139;SDS011;53185;47.378;18.922;2023-12-29T00:34:36;72.35;;;32.30;;
58139;SDS011;53185;47.378;18.922;2023-12-29T00:37:05;73.60;;;31.58;;
58139;SDS011;53185;47.378;18.922;2023-12-29T00:39:34;72.00;;;31.17;;
58139;SDS011;53185;47.378;18.922;2023-12-29T00:42:06;72.68;;;30.92;;
58139;SDS011;53185;47.378;18.922;2023-12-29T00:44:34;69.57;;;31.95;;
58139;SDS011;53185;47.378;18.922;2023-12-29T00:47:03;72.50;;;32.33;;
58139;SDS011;53185;47.378;18.922;2023-12-29T00:49:31;74.37;;;31.40;;
58139;SDS011;53185;47.378;18.922;2023-12-29T00:51:58;75.10;;;32.30;;
58139;SDS011;53185;47.378;18.922;2023-12-29T00:54:27;80.25;;;30.98;;
58139;SDS011;53185;47.378;18.922;2023-12-29T00:56:57;71.12;;;32.80;;
58139;SDS011;53185;47.378;18.922;2023-12-29T00:59:24;70.37;;;32.80;;
58139;SDS011;53185;47.378;18.922;2023-12-29T01:01:52;71.15;;;30.73;;
58139;SDS011;53185;47.378;18.922;2023-12-29T01:04:20;76.12;;;30.20;;
58139;SDS011;53185;47.378;18.922;2023-12-29T01:06:48;75.80;;;30.55;;
58139;SDS011;53185;47.378;18.922;2023-12-29T01:09:16;70.03;;;30.75;;
58139;SDS011;53185;47.378;18.922;2023-12-29T01:11:44;74.70;;;30.98;;
58139;SDS011;53185;47.378;18.922;2023-12-29T01:14:12;77.45;;;32.60;;
58139;SDS011;53185;47.378;18.922;2023-12-29T01:16:41;72.32;;;32.00;;
58139;SDS011;53185;47.378;18.922;2023-12-29T01:19:10;63.78;;;30.08;;
58139;SDS011;53185;47.378;18.922;2023-12-29T01:21:38;68.43;;;29.55;;
58139;SDS011;53185;47.378;18.922;2023-12-29T01:24:05;60.17;;;29.55;;
58139;SDS011;53185;47.378;18.922;2023-12-29T01:26:37;75.25;;;30.45;;
58139;SDS011;53185;47.378;18.922;2023-12-29T01:29:06;70.07;;;29.58;;
58139;SDS011;53185;47.378;18.922;2023-12-29T01:31:33;79.18;;;31.73;;
58139;SDS011;53185;47.378;18.922;2023-12-29T01:34:01;69.65;;;30.45;;
58139;SDS011;53185;47.378;18.922;2023-12-29T01:36:29;74.10;;;31.92;;
58139;SDS011;53185;47.378;18.922;2023-12-29T01:38:57;79.45;;;32.78;;
58139;SDS011;53185;47.378;18.922;2023-12-29T01:41:25;84.57;;;32.53;;
58139;SDS011;53185;47.378;18.922;2023-12-29T01:46:31;88.68;;;36.92;;
58139;SDS011;53185;47.378;18.922;2023-12-29T01:49:01;107.12;;;42.70;;
58139;SDS011;53185;47.378;18.922;2023-12-29T01:51:29;104.78;;;42.33;;
58139;SDS011;53185;47.378;18.922;2023-12-29T01:53:57;110.47;;;41.95;;
58139;SDS011;53185;47.378;18.922;2023-12-29T01:56:25;126.03;;;45.35;;
58139;SDS011;53185;47.378;18.922;2023-12-29T01:58:53;143.90;;;45.05;;
58139;SDS011;53185;47.378;18.922;2023-12-29T02:01:35;135.95;;;43.35;;
58139;SDS011;53185;47.378;18.922;2023-12-29T02:04:04;168.25;;;45.47;;
58139;SDS011;53185;47.378;18.922;2023-12-29T02:06:33;140.65;;;44.65;;
58139;SDS011;53185;47.378;18.922;2023-12-29T02:09:02;153.82;;;43.75;;
58139;SDS011;53185;47.378;18.922;2023-12-29T02:11:32;179.63;;;46.80;;
58139;SDS011;53185;47.378;18.922;2023-12-29T02:14:01;130.85;;;44.72;;
58139;SDS011;53185;47.378;18.922;2023-12-29T02:22:12;199.80;;;45.97;;
58139;SDS011;53185;47.378;18.922;2023-12-29T02:24:49;169.00;;;46.97;;
58139;SDS011;53185;47.378;18.922;2023-12-29T02:29:50;151.23;;;44.03;;
58139;SDS011;53185;47.378;18.922;2023-12-29T02:32:24;214.40;;;49.05;;
58139;SDS011;53185;47.378;18.922;2023-12-29T02:34:54;250.65;;;52.80;;
58139;SDS011;53185;47.378;18.922;2023-12-29T02:37:22;214.20;;;51.97;;
58139;SDS011;53185;47.378;18.922;2023-12-29T02:39:51;242.98;;;53.08;;
58139;SDS011;53185;47.378;18.922;2023-12-29T02:42:19;218.43;;;48.20;;
58139;SDS011;53185;47.378;18.922;2023-12-29T02:44:47;198.57;;;47.62;;
58139;SDS011;53185;47.378;18.922;2023-12-29T02:47:15;145.40;;;45.38;;
58139;SDS011;53185;47.378;18.922;2023-12-29T02:49:44;195.02;;;45.85;;
58139;SDS011;53185;47.378;18.922;2023-12-29T02:52:12;218.73;;;47.85;;
58139;SDS011;53185;47.378;18.922;2023-12-29T02:54:42;141.15;;;44.65;;
58139;SDS011;53185;47.378;18.922;2023-12-29T02:57:10;129.50;;;44.25;;
58139;SDS011;53185;47.378;18.922;2023-12-29T02:59:38;193.93;;;49.58;;
58139;SDS011;53185;47.378;18.922;2023-12-29T03:02:06;164.57;;;47.03;;
58139;SDS011;53185;47.378;18.922;2023-12-29T03:04:35;149.52;;;47.85;;
58139;SDS011;53185;47.378;18.922;2023-12-29T03:07:02;121.00;;;44.92;;
58139;SDS011;53185;47.378;18.922;2023-12-29T03:09:30;164.75;;;48.08;;
58139;SDS011;53185;47.378;18.922;2023-12-29T03:11:58;197.73;;;49.45;;
58139;SDS011;53185;47.378;18.922;2023-12-29T03:14:26;146.60;;;47.25;;
58139;SDS011;53185;47.378;18.922;2023-12-29T03:16:53;139.90;;;47.60;;
58139;SDS011;53185;47.378;18.922;2023-12-29T03:19:20;138.40;;;46.45;;
58139;SDS011;53185;47.378;18.922;2023-12-29T03:21:53;136.07;;;44.95;;
58139;SDS011;53185;47.378;18.922;2023-12-29T03:24:21;125.87;;;43.42;;
58139;SDS011;53185;47.378;18.922;2023-12-29T03:26:49;94.18;;;41.05;;
58139;SDS011;53185;47.378;18.922;2023-12-29T03:29:16;99.82;;;43.90;;
58139;SDS011;53185;47.378;18.922;2023-12-29T03:31:44;118.50;;;46.00;;
58139;SDS011;53185;47.378;18.922;2023-12-29T03:34:12;115.10;;;45.22;;
58139;SDS011;53185;47.378;18.922;2023-12-29T03:36:39;97.70;;;42.55;;
58139;SDS011;53185;47.378;18.922;2023-12-29T03:39:07;95.32;;;42.13;;
58139;SDS011;53185;47.378;18.922;2023-12-29T03:41:34;93.20;;;42.10;;
58139;SDS011;53185;47.378;18.922;2023-12-29T03:44:02;106.40;;;44.80;;
58139;SDS011;53185;47.378;18.922;2023-12-29T03:46:30;92.97;;;42.42;;
58139;SDS011;53185;47.378;18.922;2023-12-29T03:48:58;99.47;;;45.12;;
58139;SDS011;53185;47.378;18.922;2023-12-29T03:51:27;87.93;;;41.97;;
58139;SDS011;53185;47.378;18.922;2023-12-29T03:53:54;103.57;;;45.55;;
58139;SDS011;53185;47.378;18.922;2023-12-29T03:56:22;94.60;;;42.08;;
58139;SDS011;53185;47.378;18.922;2023-12-29T03:58:50;96.25;;;42.03;;
58139;SDS011;53185;47.378;18.922;2023-12-29T04:01:17;103.78;;;44.25;;
58139;SDS011;53185;47.378;18.922;2023-12-29T04:03:46;89.37;;;41.15;;
58139;SDS011;53185;47.378;18.922;2023-12-29T04:06:13;96.70;;;41.70;;
58139;SDS011;53185;47.378;18.922;2023-12-29T04:08:41;87.03;;;39.50;;
58139;SDS011;53185;47.378;18.922;2023-12-29T04:11:08;83.43;;;39.78;;
58139;SDS011;53185;47.378;18.922;2023-12-29T04:13:36;92.12;;;39.38;;
58139;SDS011;53185;47.378;18.922;2023-12-29T04:16:04;92.12;;;41.55;;
58139;SDS011;53185;47.378;18.922;2023-12-29T04:18:32;93.60;;;40.80;;
58139;SDS011;53185;47.378;18.922;2023-12-29T04:21:01;90.30;;;41.90;;
58139;SDS011;53185;47.378;18.922;2023-12-29T04:23:29;84.20;;;38.63;;
58139;SDS011;53185;47.378;18.922;2023-12-29T04:25:57;93.60;;;43.15;;
58139;SDS011;53185;47.378;18.922;2023-12-29T04:28:24;87.50;;;41.13;;
58139;SDS011;53185;47.378;18.922;2023-12-29T04:30:53;83.28;;;39.05;;
58139;SDS011;53185;47.378;18.922;2023-12-29T04:33:21;91.43;;;39.60;;
58139;SDS011;53185;47.378;18.922;2023-12-29T04:35:49;89.35;;;40.85;;
58139;SDS011;53185;47.378;18.922;2023-12-29T04:38:17;85.03;;;39.03;;
58139;SDS011;53185;47.378;18.922;2023-12-29T04:40:46;85.43;;;38.03;;
58139;SDS011;53185;47.378;18.922;2023-12-29T04:43:14;86.45;;;40.12;;
58139;SDS011;53185;47.378;18.922;2023-12-29T04:45:42;96.12;;;40.40;;
58139;SDS011;53185;47.378;18.922;2023-12-29T04:48:09;86.90;;;38.85;;
58139;SDS011;53185;47.378;18.922;2023-12-29T04:50:36;81.95;;;38.28;;
58139;SDS011;53185;47.378;18.922;2023-12-29T04:53:04;116.45;;;39.85;;
58139;SDS011;53185;47.378;18.922;2023-12-29T04:55:32;111.85;;;38.47;;
58139;SDS011;53185;47.378;18.922;2023-12-29T04:58:00;139.27;;;38.20;;
58139;SDS011;53185;47.378;18.922;2023-12-29T05:00:28;90.60;;;38.85;;
58139;SDS011;53185;47.378;18.922;2023-12-29T05:02:56;74.60;;;38.28;;
58139;SDS011;53185;47.378;18.922;2023-12-29T05:05:23;84.93;;;37.97;;
58139;SDS011;53185;47.378;18.922;2023-12-29T05:07:50;94.10;;;38.58;;
58139;SDS011;53185;47.378;18.922;2023-12-29T05:10:18;97.10;;;42.20;;
58139;SDS011;53185;47.378;18.922;2023-12-29T05:12:45;91.22;;;38.45;;
58139;SDS011;53185;47.378;18.922;2023-12-29T05:15:13;103.20;;;38.83;;
58139;SDS011;53185;47.378;18.922;2023-12-29T05:17:41;91.18;;;38.92;;
58139;SDS011;53185;47.378;18.922;2023-12-29T05:20:11;89.03;;;39.00;;
58139;SDS011;53185;47.378;18.922;2023-12-29T05:22:38;90.40;;;37.53;;
58139;SDS011;53185;47.378;18.922;2023-12-29T05:25:07;97.88;;;39.00;;
58139;SDS011;53185;47.378;18.922;2023-12-29T05:27:35;125.95;;;41.22;;
58139;SDS011;53185;47.378;18.922;2023-12-29T05:30:04;122.28;;;41.97;;
58139;SDS011;53185;47.378;18.922;2023-12-29T05:32:33;134.27;;;43.35;;
58139;SDS011;53185;47.378;18.922;2023-12-29T05:35:01;133.45;;;42.83;;
58139;SDS011;53185;47.378;18.922;2023-12-29T05:37:28;168.90;;;39.60;;
58139;SDS011;53185;47.378;18.922;2023-12-29T05:39:56;121.65;;;34.80;;
58139;SDS011;53185;47.378;18.922;2023-12-29T05:42:24;111.97;;;39.22;;
58139;SDS011;53185;47.378;18.922;2023-12-29T05:44:53;152.12;;;40.33;;
58139;SDS011;53185;47.378;18.922;2023-12-29T05:47:21;109.70;;;39.95;;
58139;SDS011;53185;47.378;18.922;2023-12-29T05:49:49;133.37;;;40.00;;
58139;SDS011;53185;47.378;18.922;2023-12-29T05:52:16;118.15;;;42.75;;
58139;SDS011;53185;47.378;18.922;2023-12-29T05:54:44;112.85;;;38.40;;
58139;SDS011;53185;47.378;18.922;2023-12-29T05:57:14;91.65;;;37.42;;
58139;SDS011;53185;47.378;18.922;2023-12-29T05:59:42;92.55;;;38.38;;
58139;SDS011;53185;47.378;18.922;2023-12-29T06:02:09;97.57;;;37.47;;
58139;SDS011;53185;47.378;18.922;2023-12-29T06:04:37;115.12;;;39.42;;
58139;SDS011;53185;47.378;18.922;2023-12-29T06:07:05;127.12;;;41.20;;
58139;SDS011;53185;47.378;18.922;2023-12-29T06:09:32;130.82;;;44.38;;
58139;SDS011;53185;47.378;18.922;2023-12-29T06:12:00;120.28;;;41.78;;
58139;SDS011;53185;47.378;18.922;2023-12-29T06:14:27;95.20;;;39.60;;
58139;SDS011;53185;47.378;18.922;2023-12-29T06:16:55;117.43;;;40.28;;
58139;SDS011;53185;47.378;18.922;2023-12-29T06:19:22;122.07;;;39.53;;
58139;SDS011;53185;47.378;18.922;2023-12-29T06:21:50;96.65;;;38.22;;
58139;SDS011;53185;47.378;18.922;2023-12-29T06:24:17;100.53;;;37.88;;
58139;SDS011;53185;47.378;18.922;2023-12-29T06:26:45;114.12;;;38.80;;
58139;SDS011;53185;47.378;18.922;2023-12-29T06:29:13;110.63;;;41.15;;
58139;SDS011;53185;47.378;18.922;2023-12-29T06:31:41;115.75;;;38.88;;
58139;SDS011;53185;47.378;18.922;2023-12-29T06:34:10;109.87;;;38.15;;
58139;SDS011;53185;47.378;18.922;2023-12-29T06:36:38;110.68;;;41.88;;
58139;SDS011;53185;47.378;18.922;2023-12-29T06:39:05;102.12;;;40.83;;
58139;SDS011;53185;47.378;18.922;2023-12-29T06:41:33;103.28;;;38.45;;
58139;SDS011;53185;47.378;18.922;2023-12-29T06:44:02;104.68;;;41.13;;
58139;SDS011;53185;47.378;18.922;2023-12-29T06:46:29;104.55;;;40.95;;
58139;SDS011;53185;47.378;18.922;2023-12-29T06:48:57;113.20;;;42.00;;
58139;SDS011;53185;47.378;18.922;2023-12-29T06:51:24;127.00;;;39.58;;
58139;SDS011;53185;47.378;18.922;2023-12-29T06:53:52;107.65;;;39.83;;
58139;SDS011;53185;47.378;18.922;2023-12-29T06:56:20;98.50;;;39.42;;
58139;SDS011;53185;47.378;18.922;2023-12-29T06:58:47;115.85;;;37.80;;
58139;SDS011;53185;47.378;18.922;2023-12-29T07:01:15;84.00;;;36.10;;
58139;SDS011;53185;47.378;18.922;2023-12-29T07:03:43;101.62;;;35.05;;
58139;SDS011;53185;47.378;18.922;2023-12-29T07:06:12;130.90;;;38.15;;
58139;SDS011;53185;47.378;18.922;2023-12-29T07:08:40;102.22;;;38.17;;
58139;SDS011;53185;47.378;18.922;2023-12-29T07:11:11;118.03;;;38.55;;
58139;SDS011;53185;47.378;18.922;2023-12-29T07:13:38;101.82;;;39.15;;
58139;SDS011;53185;47.378;18.922;2023-12-29T07:16:06;167.27;;;40.72;;
58139;SDS011;53185;47.378;18.922;2023-12-29T07:18:34;142.55;;;37.25;;
58139;SDS011;53185;47.378;18.922;2023-12-29T07:21:03;117.78;;;35.03;;
58139;SDS011;53185;47.378;18.922;2023-12-29T07:23:30;129.38;;;35.38;;
58139;SDS011;53185;47.378;18.922;2023-12-29T07:25:58;124.78;;;36.55;;
58139;SDS011;53185;47.378;18.922;2023-12-29T07:28:25;108.05;;;35.90;;
58139;SDS011;53185;47.378;18.922;2023-12-29T07:30:53;101.10;;;37.38;;
58139;SDS011;53185;47.378;18.922;2023-12-29T07:33:21;137.10;;;37.25;;
58139;SDS011;53185;47.378;18.922;2023-12-29T07:35:49;134.87;;;36.72;;
58139;SDS011;53185;47.378;18.922;2023-12-29T07:38:16;140.95;;;38.70;;
58139;SDS011;53185;47.378;18.922;2023-12-29T07:40:44;141.45;;;39.95;;
58139;SDS011;53185;47.378;18.922;2023-12-29T07:43:11;94.13;;;35.05;;
58139;SDS011;53185;47.378;18.922;2023-12-29T07:45:39;112.97;;;37.05;;
58139;SDS011;53185;47.378;18.922;2023-12-29T07:48:07;128.80;;;38.33;;
58139;SDS011;53185;47.378;18.922;2023-12-29T07:50:37;127.18;;;36.53;;
58139;SDS011;53185;47.378;18.922;2023-12-29T07:53:05;108.50;;;37.90;;
58139;SDS011;53185;47.378;18.922;2023-12-29T07:55:36;83.78;;;34.63;;
58139;SDS011;53185;47.378;18.922;2023-12-29T07:58:05;89.65;;;35.97;;
58139;SDS011;53185;47.378;18.922;2023-12-29T08:00:33;105.55;;;36.60;;
58139;SDS011;53185;47.378;18.922;2023-12-29T08:03:01;99.80;;;35.88;;
58139;SDS011;53185;47.378;18.922;2023-12-29T08:05:29;88.30;;;34.63;;
58139;SDS011;53185;47.378;18.922;2023-12-29T08:07:56;96.10;;;36.17;;
58139;SDS011;53185;47.378;18.922;2023-12-29T08:10:27;112.00;;;38.35;;
58139;SDS011;53185;47.378;18.922;2023-12-29T08:12:54;92.30;;;36.10;;
58139;SDS011;53185;47.378;18.922;2023-12-29T08:15:26;78.50;;;33.20;;
58139;SDS011;53185;47.378;18.922;2023-12-29T08:17:53;98.43;;;36.45;;
58139;SDS011;53185;47.378;18.922;2023-12-29T08:20:22;81.95;;;33.75;;
58139;SDS011;53185;47.378;18.922;2023-12-29T08:22:54;79.60;;;35.40;;
58139;SDS011;53185;47.378;18.922;2023-12-29T08:25:22;100.05;;;35.10;;
58139;SDS011;53185;47.378;18.922;2023-12-29T08:27:51;73.45;;;32.70;;
58139;SDS011;53185;47.378;18.922;2023-12-29T08:30:23;73.05;;;34.45;;
58139;SDS011;53185;47.378;18.922;2023-12-29T08:32:51;88.40;;;34.33;;
58139;SDS011;53185;47.378;18.922;2023-12-29T08:35:20;83.68;;;35.42;;
58139;SDS011;53185;47.378;18.922;2023-12-29T08:37:49;88.75;;;35.80;;
58139;SDS011;53185;47.378;18.922;2023-12-29T08:40:17;92.40;;;40.22;;
58139;SDS011;53185;47.378;18.922;2023-12-29T08:42:44;75.87;;;37.78;;
58139;SDS011;53185;47.378;18.922;2023-12-29T08:45:14;93.65;;;40.10;;
58139;SDS011;53185;47.378;18.922;2023-12-29T08:47:42;85.95;;;39.55;;
58139;SDS011;53185;47.378;18.922;2023-12-29T08:50:09;78.18;;;38.22;;
58139;SDS011;53185;47.378;18.922;2023-12-29T08:52:39;72.30;;;38.13;;
58139;SDS011;53185;47.378;18.922;2023-12-29T08:55:07;94.72;;;38.75;;
58139;SDS011;53185;47.378;18.922;2023-12-29T08:57:35;81.18;;;38.60;;
58139;SDS011;53185;47.378;18.922;2023-12-29T09:00:03;86.10;;;41.03;;
58139;SDS011;53185;47.378;18.922;2023-12-29T09:02:33;93.37;;;40.70;;
58139;SDS011;53185;47.378;18.922;2023-12-29T09:05:00;93.25;;;42.30;;
58139;SDS011;53185;47.378;18.922;2023-12-29T09:13:23;94.47;;;42.33;;
58139;SDS011;53185;47.378;18.922;2023-12-29T09:15:53;100.80;;;45.38;;
58139;SDS011;53185;47.378;18.922;2023-12-29T09:18:24;100.55;;;46.30;;
58139;SDS011;53185;47.378;18.922;2023-12-29T09:20:53;118.60;;;52.25;;
58139;SDS011;53185;47.378;18.922;2023-12-29T09:23:20;115.12;;;48.22;;
58139;SDS011;53185;47.378;18.922;2023-12-29T09:25:48;120.68;;;51.97;;
58139;SDS011;53185;47.378;18.922;2023-12-29T09:28:17;128.12;;;49.67;;
58139;SDS011;53185;47.378;18.922;2023-12-29T09:30:46;123.87;;;50.00;;
58139;SDS011;53185;47.378;18.922;2023-12-29T09:33:14;112.03;;;50.05;;
58139;SDS011;53185;47.378;18.922;2023-12-29T09:35:42;111.93;;;47.47;;
58139;SDS011;53185;47.378;18.922;2023-12-29T09:38:10;115.90;;;48.65;;
58139;SDS011;53185;47.378;18.922;2023-12-29T09:40:38;117.43;;;48.40;;
58139;SDS011;53185;47.378;18.922;2023-12-29T09:43:07;106.07;;;46.08;;
58139;SDS011;53185;47.378;18.922;2023-12-29T09:45:37;116.95;;;49.85;;
58139;SDS011;53185;47.378;18.922;2023-12-29T09:48:07;116.72;;;47.28;;
58139;SDS011;53185;47.378;18.922;2023-12-29T09:50:35;100.57;;;46.63;;
58139;SDS011;53185;47.378;18.922;2023-12-29T09:56:34;100.23;;;45.90;;
58139;SDS011;53185;47.378;18.922;2023-12-29T10:02:32;99.72;;;46.42;;
58139;SDS011;53185;47.378;18.922;2023-12-29T10:05:01;109.45;;;46.47;;
58139;SDS011;53185;47.378;18.922;2023-12-29T10:07:28;94.80;;;45.30;;
58139;SDS011;53185;47.378;18.922;2023-12-29T10:10:00;95.07;;;44.00;;
58139;SDS011;53185;47.378;18.922;2023-12-29T10:12:50;99.85;;;44.42;;
58139;SDS011;53185;47.378;18.922;2023-12-29T10:23:29;84.57;;;35.95;;
58139;SDS011;53185;47.378;18.922;2023-12-29T10:26:00;72.30;;;34.13;;
58139;SDS011;53185;47.378;18.922;2023-12-29T10:28:28;68.85;;;31.83;;
58139;SDS011;53185;47.378;18.922;2023-12-29T10:30:55;77.07;;;33.60;;
58139;SDS011;53185;47.378;18.922;2023-12-29T10:33:23;59.97;;;27.73;;
58139;SDS011;53185;47.378;18.922;2023-12-29T10:35:57;57.70;;;27.35;;
58139;SDS011;53185;47.378;18.922;2023-12-29T10:38:31;54.22;;;27.67;;
58139;SDS011;53185;47.378;18.922;2023-12-29T10:41:12;53.17;;;27.20;;
58139;SDS011;53185;47.378;18.922;2023-12-29T10:43:44;49.85;;;25.80;;
58139;SDS011;53185;47.378;18.922;2023-12-29T10:46:19;47.17;;;23.23;;
58139;SDS011;53185;47.378;18.922;2023-12-29T10:48:48;50.30;;;25.50;;
58139;SDS011;53185;47.378;18.922;2023-12-29T10:51:27;52.72;;;27.75;;
58139;SDS011;53185;47.378;18.922;2023-12-29T10:53:57;53.40;;;26.80;;
58139;SDS011;53185;47.378;18.922;2023-12-29T10:56:25;56.55;;;28.08;;
58139;SDS011;53185;47.378;18.922;2023-12-29T10:59:04;59.80;;;29.67;;
58139;SDS011;53185;47.378;18.922;2023-12-29T11:01:35;57.42;;;27.60;;
58139;SDS011;53185;47.378;18.922;2023-12-29T11:04:05;50.47;;;24.37;;
58139;SDS011;53185;47.378;18.922;2023-12-29T11:06:51;47.20;;;23.48;;
58139;SDS011;53185;47.378;18.922;2023-12-29T11:09:28;50.20;;;26.20;;
58139;SDS011;53185;47.378;18.922;2023-12-29T11:12:03;46.85;;;23.65;;
58139;SDS011;53185;47.378;18.922;2023-12-29T11:14:32;57.33;;;25.77;;
58139;SDS011;53185;47.378;18.922;2023-12-29T11:17:00;41.42;;;22.40;;
58139;SDS011;53185;47.378;18.922;2023-12-29T11:19:27;42.83;;;22.13;;
58139;SDS011;53185;47.378;18.922;2023-12-29T11:21:56;43.63;;;22.17;;
58139;SDS011;53185;47.378;18.922;2023-12-29T11:24:24;41.72;;;22.85;;
58139;SDS011;53185;47.378;18.922;2023-12-29T11:27:06;51.17;;;26.23;;
58139;SDS011;53185;47.378;18.922;2023-12-29T11:29:35;52.17;;;26.98;;
58139;SDS011;53185;47.378;18.922;2023-12-29T11:32:02;66.05;;;33.03;;
58139;SDS011;53185;47.378;18.922;2023-12-29T11:34:38;80.43;;;35.03;;
58139;SDS011;53185;47.378;18.922;2023-12-29T11:37:28;70.75;;;34.63;;
58139;SDS011;53185;47.378;18.922;2023-12-29T11:40:23;59.33;;;31.27;;
58139;SDS011;53185;47.378;18.922;2023-12-29T11:42:57;56.15;;;28.15;;
58139;SDS011;53185;47.378;18.922;2023-12-29T11:45:39;57.45;;;27.75;;
58139;SDS011;53185;47.378;18.922;2023-12-29T11:48:14;45.78;;;24.10;;
58139;SDS011;53185;47.378;18.922;2023-12-29T11:57:31;42.20;;;21.37;;
58139;SDS011;53185;47.378;18.922;2023-12-29T12:03:33;41.10;;;17.10;;
58139;SDS011;53185;47.378;18.922;2023-12-29T12:06:01;32.30;;;17.58;;
58139;SDS011;53185;47.378;18.922;2023-12-29T12:08:35;35.13;;;17.50;;
58139;SDS011;53185;47.378;18.922;2023-12-29T12:13:56;35.17;;;18.17;;
58139;SDS011;53185;47.378;18.922;2023-12-29T12:19:36;33.90;;;17.15;;
58139;SDS011;53185;47.378;18.922;2023-12-29T12:22:07;28.30;;;15.50;;
58139;SDS011;53185;47.378;18.922;2023-12-29T12:24:37;34.88;;;18.05;;
58139;SDS011;53185;47.378;18.922;2023-12-29T12:27:18;30.30;;;16.65;;
58139;SDS011;53185;47.378;18.922;2023-12-29T12:29:45;33.25;;;16.17;;
58139;SDS011;53185;47.378;18.922;2023-12-29T12:32:16;34.47;;;16.70;;
58139;SDS011;53185;47.378;18.922;2023-12-29T12:34:44;29.90;;;17.00;;
58139;SDS011;53185;47.378;18.922;2023-12-29T12:37:12;33.97;;;17.73;;
58139;SDS011;53185;47.378;18.922;2023-12-29T12:39:40;27.27;;;14.93;;
58139;SDS011;53185;47.378;18.922;2023-12-29T12:42:09;25.52;;;15.20;;
58139;SDS011;53185;47.378;18.922;2023-12-29T12:44:40;32.45;;;15.30;;
58139;SDS011;53185;47.378;18.922;2023-12-29T12:47:10;28.17;;;16.00;;
58139;SDS011;53185;47.378;18.922;2023-12-29T12:49:45;29.05;;;14.60;;
58139;SDS011;53185;47.378;18.922;2023-12-29T12:52:14;25.25;;;14.38;;
58139;SDS011;53185;47.378;18.922;2023-12-29T12:54:42;32.00;;;17.02;;
58139;SDS011;53185;47.378;18.922;2023-12-29T12:57:10;31.12;;;16.77;;
58139;SDS011;53185;47.378;18.922;2023-12-29T12:59:38;32.47;;;16.00;;
58139;SDS011;53185;47.378;18.922;2023-12-29T13:02:07;34.40;;;17.15;;
58139;SDS011;53185;47.378;18.922;2023-12-29T13:04:38;28.38;;;16.60;;
58139;SDS011;53185;47.378;18.922;2023-12-29T13:07:10;38.47;;;17.05;;
58139;SDS011;53185;47.378;18.922;2023-12-29T13:10:15;32.08;;;16.92;;
58139;SDS011;53185;47.378;18.922;2023-12-29T13:12:51;42.97;;;18.45;;
58139;SDS011;53185;47.378;18.922;2023-12-29T13:15:22;32.40;;;17.87;;
58139;SDS011;53185;47.378;18.922;2023-12-29T13:18:00;37.47;;;21.17;;
58139;SDS011;53185;47.378;18.922;2023-12-29T13:20:29;32.00;;;19.27;;
58139;SDS011;53185;47.378;18.922;2023-12-29T13:23:11;36.58;;;19.73;;
58139;SDS011;53185;47.378;18.922;2023-12-29T13:25:40;41.33;;;21.42;;
58139;SDS011;53185;47.378;18.922;2023-12-29T13:28:13;38.30;;;20.05;;
58139;SDS011;53185;47.378;18.922;2023-12-29T13:30:41;49.28;;;23.10;;
58139;SDS011;53185;47.378;18.922;2023-12-29T13:33:12;36.30;;;20.58;;
58139;SDS011;53185;47.378;18.922;2023-12-29T13:35:49;33.63;;;19.20;;
58139;SDS011;53185;47.378;18.922;2023-12-29T13:38:34;32.90;;;17.98;;
58139;SDS011;53185;47.378;18.922;2023-12-29T13:41:06;34.55;;;18.62;;
58139;SDS011;53185;47.378;18.922;2023-12-29T13:43:36;36.30;;;18.20;;
58139;SDS011;53185;47.378;18.922;2023-12-29T13:46:10;36.95;;;20.30;;
58139;SDS011;53185;47.378;18.922;2023-12-29T13:48:38;97.05;;;44.45;;
58139;SDS011;53185;47.378;18.922;2023-12-29T13:51:07;36.90;;;19.23;;
58139;SDS011;53185;47.378;18.922;2023-12-29T13:53:35;33.22;;;19.25;;
58139;SDS011;53185;47.378;18.922;2023-12-29T13:56:09;34.13;;;18.23;;
58139;SDS011;53185;47.378;18.922;2023-12-29T13:58:37;35.70;;;19.80;;
58139;SDS011;53185;47.378;18.922;2023-12-29T14:04:35;37.33;;;19.92;;
58139;SDS011;53185;47.378;18.922;2023-12-29T14:10:33;38.65;;;20.12;;
58139;SDS011;53185;47.378;18.922;2023-12-29T14:13:03;43.42;;;20.25;;
58139;SDS011;53185;47.378;18.922;2023-12-29T14:15:39;40.42;;;22.30;;
58139;SDS011;53185;47.378;18.922;2023-12-29T14:20:40;44.40;;;21.27;;
58139;SDS011;53185;47.378;18.922;2023-12-29T14:23:08;39.22;;;22.20;;
58139;SDS011;53185;47.378;18.922;2023-12-29T14:25:37;42.42;;;21.75;;
58139;SDS011;53185;47.378;18.922;2023-12-29T14:28:14;41.15;;;23.00;;
58139;SDS011;53185;47.378;18.922;2023-12-29T14:30:44;42.78;;;23.00;;
58139;SDS011;53185;47.378;18.922;2023-12-29T14:33:12;37.45;;;20.02;;
58139;SDS011;53185;47.378;18.922;2023-12-29T14:35:40;36.25;;;19.62;;
58139;SDS011;53185;47.378;18.922;2023-12-29T14:38:12;57.80;;;27.55;;
58139;SDS011;53185;47.378;18.922;2023-12-29T14:40:44;47.72;;;25.58;;
58139;SDS011;53185;47.378;18.922;2023-12-29T14:43:12;50.38;;;25.73;;
58139;SDS011;53185;47.378;18.922;2023-12-29T14:45:43;52.10;;;27.30;;
58139;SDS011;53185;47.378;18.922;2023-12-29T14:48:11;52.05;;;25.67;;
58139;SDS011;53185;47.378;18.922;2023-12-29T14:50:39;49.17;;;26.92;;
58139;SDS011;53185;47.378;18.922;2023-12-29T14:53:12;53.00;;;26.17;;
58139;SDS011;53185;47.378;18.922;2023-12-29T14:55:40;64.95;;;31.90;;
58139;SDS011;53185;47.378;18.922;2023-12-29T14:58:07;50.42;;;25.65;;
58139;SDS011;53185;47.378;18.922;2023-12-29T15:00:36;48.60;;;26.70;;
58139;SDS011;53185;47.378;18.922;2023-12-29T15:03:08;53.20;;;26.02;;
58139;SDS011;53185;47.378;18.922;2023-12-29T15:05:41;57.03;;;26.45;;
58139;SDS011;53185;47.378;18.922;2023-12-29T15:08:10;56.40;;;27.95;;
58139;SDS011;53185;47.378;18.922;2023-12-29T15:10:38;55.15;;;26.15;;
58139;SDS011;53185;47.378;18.922;2023-12-29T15:13:05;52.17;;;26.92;;